Birmingham International Airport (BHM)

 

Airport Diagram
Current Weather/Forecast (IFR Conditions)
METAR KBHM 230353Z 05004KT 8SM -RA BKN007 OVC023 13/12 A3014 RMK AO2 RAB37 SLP204 P0000 T01330122
TAF KBHM 230158Z 2302/2324 06009KT P6SM VCSH OVC007 FM230500 13007KT P6SM OVC007 FM230900 14010KT 4SM BR OVC003 TEMPO 2310/2314 3/4SM BR FM231500 15008KT 3SM BR OVC007 FM231800 16013G22KT P6SM OVC012 PROB30 2322/2324 2SM TSRA OVC025CB

All Charts
General
Chart Name Download
AIRPORT DIAGRAM
TAKEOFF MINIMUMS
ALTERNATE MINIMUMS
LAHSO

Departures
Chart Name Download
BIRMINGHAM SEVEN
BIRMINGHAM SEVEN, CONT.1

Approaches
Chart Name Download
ILS OR LOC RWY 06
ILS OR LOC RWY 24
ILS RWY 06 (CAT II)
ILS RWY 24 (SA CAT II)
RNAV (RNP) Z RWY 06
RNAV (RNP) Z RWY 24
RNAV (GPS) RWY 18
RNAV (GPS) RWY 36
RNAV (GPS) Y RWY 06
RNAV (GPS) Y RWY 24
LOC RWY 18


Inbound Traffic (Arrivals)

No inbound traffic.


Outbound Traffic (Departures)

No outbound traffic.